createdAt,value
2019-04-14T00:01:12.896Z,16.87
2019-04-14T00:06:20.234Z,15.83
2019-04-14T00:11:25.891Z,16.30
2019-04-14T00:16:33.408Z,16.90
2019-04-14T00:21:38.975Z,16.57
2019-04-14T00:26:46.603Z,16.93
2019-04-14T00:31:54.293Z,16.53
2019-04-14T00:37:07.777Z,16.97
2019-04-14T00:42:45.193Z,17.67
2019-04-14T00:48:13.923Z,17.50
2019-04-14T00:53:16.620Z,17.70
2019-04-14T00:58:21.956Z,16.60
2019-04-14T01:03:27.268Z,16.50
2019-04-14T01:08:33.455Z,17.47
2019-04-14T01:13:39.750Z,17.33
2019-04-14T01:18:45.173Z,17.57
2019-04-14T01:23:50.456Z,17.43
2019-04-14T01:28:56.761Z,16.60
2019-04-14T01:34:02.135Z,17.67
2019-04-14T01:39:08.966Z,17.30
2019-04-14T01:44:15.538Z,17.73
2019-04-14T01:49:20.963Z,17.53
2019-04-14T01:54:54.286Z,17.87
2019-04-14T02:00:20.788Z,17.90
2019-04-14T02:05:26.236Z,17.87
2019-04-14T02:10:32.654Z,18.37
2019-04-14T02:15:38.069Z,18.40
2019-04-14T02:20:44.591Z,17.93
2019-04-14T02:25:51.325Z,18.83
2019-04-14T02:31:12.003Z,18.83
2019-04-14T02:36:36.073Z,18.70
2019-04-14T02:41:57.037Z,19.03
2019-04-14T02:46:47.607Z,18.47
2019-04-14T02:51:54.151Z,19.33
2019-04-14T02:57:03.666Z,19.73
2019-04-14T03:07:21.501Z,17.73
2019-04-14T03:12:16.745Z,18.07
2019-04-14T03:17:36.799Z,18.57
2019-04-14T03:22:47.852Z,17.63
2019-04-14T03:27:54.757Z,19.47
2019-04-14T03:33:43.365Z,17.33
2019-04-14T03:38:18.678Z,19.27
2019-04-14T03:43:22.699Z,19.00
2019-04-14T03:48:45.147Z,18.97
2019-04-14T03:53:27.627Z,18.47
2019-04-14T03:58:11.497Z,17.57
2019-04-14T04:03:17.391Z,18.77
2019-04-14T04:08:22.767Z,19.73
2019-04-14T04:13:28.147Z,20.77
2019-04-14T04:18:44.769Z,21.70
2019-04-14T04:23:48.976Z,21.97
2019-04-14T04:29:22.538Z,21.50
2019-04-14T04:34:59.921Z,21.23
2019-04-14T04:40:14.363Z,20.87
2019-04-14T04:45:19.686Z,21.70
2019-04-14T04:50:26.005Z,20.03
2019-04-14T04:55:32.781Z,21.43
2019-04-14T05:00:39.409Z,23.33
2019-04-14T05:06:35.148Z,21.63
2019-04-14T05:11:45.081Z,24.07
2019-04-14T05:16:50.748Z,22.73
2019-04-14T05:21:56.131Z,24.07
2019-04-14T05:27:01.468Z,22.50
2019-04-14T05:32:06.894Z,22.23
2019-04-14T05:37:13.894Z,22.73
2019-04-14T05:42:24.058Z,22.73
2019-04-14T05:47:26.629Z,22.13
2019-04-14T05:52:31.941Z,26.10
2019-04-14T05:57:37.283Z,23.43
2019-04-14T06:02:42.624Z,24.60
2019-04-14T06:07:47.952Z,22.27
2019-04-14T06:12:54.413Z,23.13
2019-04-14T06:17:59.731Z,23.53
2019-04-14T06:23:05.088Z,25.80
2019-04-14T06:28:10.436Z,24.80
2019-04-14T06:33:27.532Z,24.97
2019-04-14T06:38:34.957Z,22.00
2019-04-14T06:43:48.752Z,23.53
2019-04-14T06:48:47.221Z,26.27
2019-04-14T06:53:52.560Z,25.50
2019-04-14T06:58:57.916Z,23.60
2019-04-14T07:04:03.240Z,25.47
2019-04-14T07:09:08.625Z,23.83
2019-04-14T07:14:13.959Z,22.30
2019-04-14T07:19:19.712Z,22.30
2019-04-14T07:24:25.047Z,23.70
2019-04-14T07:29:36.015Z,24.43
2019-04-14T07:35:15.355Z,23.20
2019-04-14T07:40:38.380Z,23.57
2019-04-14T07:45:51.662Z,19.20
2019-04-14T07:51:34.703Z,18.63
2019-04-14T07:57:18.455Z,20.40
2019-04-14T08:02:52.061Z,20.10
2019-04-14T08:07:57.431Z,19.57
2019-04-14T08:13:03.297Z,19.53
2019-04-14T08:18:10.479Z,20.97
2019-04-14T08:23:18.855Z,21.00
2019-04-14T08:28:37.945Z,22.07
2019-04-14T08:33:46.485Z,20.73
2019-04-14T08:38:54.703Z,22.00
2019-04-14T08:44:24.356Z,20.33
2019-04-14T08:49:57.891Z,20.33
2019-04-14T08:55:21.017Z,20.37
2019-04-14T09:00:42.103Z,20.07
2019-04-14T09:06:12.812Z,20.83
2019-04-14T09:11:19.955Z,21.10
2019-04-14T09:16:25.341Z,21.23
2019-04-14T09:21:30.873Z,21.10
2019-04-14T09:26:36.936Z,19.57
2019-04-14T09:31:42.473Z,19.53
2019-04-14T09:36:48.347Z,19.10
2019-04-14T09:41:54.082Z,19.33
2019-04-14T09:46:59.724Z,20.20
2019-04-14T09:52:06.047Z,18.20
2019-04-14T09:57:12.215Z,18.50
2019-04-14T10:02:18.033Z,20.40
2019-04-14T10:07:23.563Z,20.47
2019-04-14T10:12:28.879Z,18.37
2019-04-14T10:17:34.406Z,18.47
2019-04-14T10:22:40.732Z,18.80
2019-04-14T10:27:46.752Z,16.40
2019-04-14T10:32:53.596Z,18.47
2019-04-14T10:38:00.576Z,18.03
2019-04-14T10:43:07.263Z,19.57
2019-04-14T10:48:13.335Z,18.33
2019-04-14T10:53:19.031Z,17.70
2019-04-14T10:58:24.702Z,18.97
2019-04-14T11:03:30.531Z,18.17
2019-04-14T11:08:37.938Z,18.03
2019-04-14T11:13:43.432Z,17.97
2019-04-14T11:18:50.816Z,17.43
2019-04-14T11:23:57.938Z,19.33
2019-04-14T11:29:03.773Z,19.70
2019-04-14T11:34:12.549Z,19.40
2019-04-14T11:39:21.582Z,17.97
2019-04-14T11:44:29.133Z,19.13
2019-04-14T11:49:34.756Z,19.63
2019-04-14T11:54:40.093Z,19.23
2019-04-14T11:59:53.608Z,21.45
2019-04-14T12:05:06.055Z,19.93
2019-04-14T12:10:14.177Z,19.70
2019-04-14T12:15:19.737Z,18.93
2019-04-14T12:20:25.142Z,18.53
2019-04-14T12:25:30.783Z,19.00
2019-04-14T12:30:37.658Z,19.33
2019-04-14T12:35:44.850Z,20.63
2019-04-14T12:40:52.344Z,20.20
2019-04-14T12:46:28.891Z,18.87
2019-04-14T12:51:38.104Z,18.53
2019-04-14T12:56:43.673Z,18.63
2019-04-14T13:01:56.671Z,18.53
2019-04-14T13:07:02.220Z,17.77
2019-04-14T13:12:10.146Z,18.13
2019-04-14T13:17:14.684Z,16.60
2019-04-14T13:22:20.246Z,16.77
2019-04-14T13:27:25.571Z,17.70
2019-04-14T13:32:36.162Z,17.47
2019-04-14T13:37:37.940Z,17.23
2019-04-14T13:42:44.347Z,17.60
2019-04-14T13:47:49.741Z,17.03
2019-04-14T13:52:55.071Z,16.57
2019-04-14T13:58:00.507Z,16.30
2019-04-14T14:03:06.033Z,17.80
2019-04-14T14:08:13.182Z,16.50
2019-04-14T14:13:36.237Z,16.13
2019-04-14T14:19:00.670Z,16.03
2019-04-14T14:24:34.836Z,16.37
2019-04-14T14:29:40.446Z,16.50
2019-04-14T14:34:45.895Z,15.67
2019-04-14T14:39:51.400Z,16.47
2019-04-14T14:45:21.935Z,17.07
2019-04-14T14:50:36.564Z,17.67
2019-04-14T14:55:41.902Z,17.23
2019-04-14T15:00:48.383Z,17.63
2019-04-14T15:05:53.895Z,18.57
2019-04-14T15:10:59.308Z,17.37
2019-04-14T15:16:04.971Z,19.33
2019-04-14T15:21:10.621Z,18.10
2019-04-14T15:26:17.609Z,18.87
2019-04-14T15:31:24.501Z,18.23
2019-04-14T15:36:31.786Z,18.87
2019-04-14T15:41:37.319Z,16.67
2019-04-14T15:46:42.798Z,16.70
2019-04-14T15:51:48.762Z,15.80
2019-04-14T15:57:12.177Z,16.80
2019-04-14T16:02:35.199Z,15.50
2019-04-14T16:08:02.572Z,16.20
2019-04-14T16:13:20.673Z,16.00
2019-04-14T16:18:47.584Z,15.53
2019-04-14T16:23:53.052Z,16.70
2019-04-14T16:29:08.699Z,16.23
2019-04-14T16:34:26.760Z,16.30
2019-04-14T16:39:32.515Z,16.90
2019-04-14T16:44:38.151Z,16.93
2019-04-14T16:49:43.690Z,17.67
2019-04-14T16:55:12.825Z,17.50
2019-04-14T17:00:27.474Z,18.97
2019-04-14T17:05:34.894Z,18.20
2019-04-14T17:10:40.775Z,18.37
2019-04-14T17:16:11.474Z,18.83
2019-04-14T17:21:38.855Z,19.50
2019-04-14T17:27:00.185Z,18.70
2019-04-14T17:32:21.918Z,19.27
2019-04-14T17:37:45.024Z,18.83
2019-04-14T17:43:15.666Z,19.00
2019-04-14T17:48:32.238Z,19.63
2019-04-14T17:53:47.056Z,18.13
2019-04-14T17:59:00.007Z,17.83
2019-04-14T18:04:21.514Z,18.70
2019-04-14T18:10:01.231Z,18.57
2019-04-14T18:15:25.724Z,19.67
2019-04-14T18:20:34.737Z,18.73
2019-04-14T18:25:40.445Z,19.37
2019-04-14T18:30:52.713Z,20.20
2019-04-14T18:36:05.375Z,19.87
2019-04-14T18:41:24.262Z,19.40
2019-04-14T18:46:48.704Z,20.83
2019-04-14T18:52:13.214Z,19.97
2019-04-14T18:57:34.174Z,18.77
2019-04-14T19:02:39.820Z,20.17
2019-04-14T19:07:45.771Z,21.80
2019-04-14T19:13:09.377Z,21.13
2019-04-14T19:18:26.775Z,22.60
2019-04-14T19:23:32.084Z,24.73
2019-04-14T19:28:37.403Z,23.83
2019-04-14T19:33:42.940Z,24.43
2019-04-14T19:38:48.328Z,26.40
2019-04-14T19:43:53.692Z,23.53
2019-04-14T19:48:59.093Z,26.43
2019-04-14T19:54:05.040Z,25.20
2019-04-14T19:59:10.545Z,26.27
2019-04-14T20:04:16.184Z,26.67
2019-04-14T20:09:21.502Z,25.60
2019-04-14T20:14:26.983Z,28.80
2019-04-14T20:19:54.751Z,26.80
2019-04-14T20:25:19.100Z,26.73
2019-04-14T20:30:32.834Z,26.60
2019-04-14T20:35:38.488Z,28.80
2019-04-14T20:40:44.440Z,29.30
2019-04-14T20:45:50.279Z,28.07
2019-04-14T20:50:56.548Z,30.10
2019-04-14T20:56:02.377Z,31.87
2019-04-14T21:01:10.958Z,31.17
2019-04-14T21:06:47.009Z,31.67
2019-04-14T21:12:05.494Z,33.23
2019-04-14T21:17:38.810Z,32.77
2019-04-14T21:23:09.632Z,32.57
2019-04-14T21:28:27.036Z,36.47
2019-04-14T21:33:57.673Z,33.07
2019-04-14T21:39:17.943Z,31.97
2019-04-14T21:44:26.367Z,33.20
2019-04-14T21:49:32.917Z,29.50
2019-04-14T21:54:39.382Z,28.90
2019-04-14T22:00:03.560Z,28.17
2019-04-14T22:05:20.404Z,33.30
2019-04-14T22:10:38.913Z,33.07
2019-04-14T22:15:44.584Z,32.53
2019-04-14T22:20:50.421Z,34.33
2019-04-14T22:25:55.835Z,32.87
2019-04-14T22:31:01.196Z,31.93
2019-04-14T22:36:06.671Z,34.70
2019-04-14T22:41:12.023Z,35.40
2019-04-14T22:46:17.323Z,34.47
2019-04-14T22:51:22.967Z,32.60
2019-04-14T22:56:38.541Z,31.07
2019-04-14T23:01:36.965Z,31.03
2019-04-14T23:07:16.802Z,31.90
2019-04-14T23:12:47.388Z,27.77
2019-04-14T23:18:11.647Z,30.97
2019-04-14T23:23:31.862Z,30.73
2019-04-14T23:28:37.303Z,31.03
2019-04-14T23:33:42.976Z,29.93
2019-04-14T23:38:48.281Z,31.27
2019-04-14T23:43:53.607Z,30.93
2019-04-14T23:49:00.020Z,29.03
2019-04-14T23:54:06.065Z,29.20
2019-04-14T23:59:11.490Z,29.43
